Lexington, NE (68850)

10:36 PM CST on January 17, 2017 (GMT -0600)
MUP019 | | Change Station

Elev 2407 ft 40.79 °N, 99.79 °W | Updated 28 minutes ago

Clear
Clear
31.0 °F
Feels Like 27 °F
N
4.0
Wind Variable Wind from SSW
Gusts 4.0 mph

Today
High -- | Low -- °F
--% Chance of Precip.
Yesterday
High -- | Low -- °F
Precip. -- in
Pressure 30.04 in
Visibility 10.0 miles
Clouds Clear
Windchill 27 °F
Dew Point Not available.
Humidity Not available.
Rainfall in
Snow Depth Not available.
7:59 AM 5:38 PM
Waning Gibbous, 67% visible
METAR KLXN 180415Z AUTO 21007KT 10SM CLR 01/M03 A3004 RMK AO2 T00101027
Pressure 30.04 in
Visibility 10.0 miles
Clouds Clear
Windchill 27 °F
Dew Point Not available.
Humidity Not available.
Rainfall in
Snow Depth Not available.
7:59 AM 5:38 PM
Waning Gibbous, 67% visible
METAR KLXN 180415Z AUTO 21007KT 10SM CLR 01/M03 A3004 RMK AO2 T00101027

Get Your Daily Forecast Email!

Thanks for signing up!

Be on the lookout for a verification email in your inbox.

You'll start receiving the daily forecast at 8 AM.

×

10-Day Weather Forecast

Almanac

Astronomy

Jan. 17, 2017 Rise Set
Actual Time
Civil Twilight
Nautical Twilight
Astronomical Twilight
Moon
Length of Visible Light
Length of Day
Tomorrow will be .
, % of the Moon is Illuminated

Today's Extremes

State Highs State Lows

Community

WunderPhotos

Upload Photos

1,962,540 photos uploaded!

WunderBlog® & News

Nearby

Air Quality

  Air Quality AQ Index Pollutant
Not available.

Snow Depth

Station Depth Elevation

Earthquake Activity

City Distance Mag. Time & Date
Minimum magnitude displayed is 2.5.

Coastal Water Temperatures

Place Temperature

Stations

Nearby Weather Stations

Station Location Temp. Windchill Dew Point Humidity Wind Precip. Elev Updated Type
                   

Watches & Warnings

There are currently no watches in effect.